createdAt,value
2023-05-04T00:01:56.929Z,5.20
2023-05-04T00:04:23.516Z,4.30
2023-05-04T00:06:50.069Z,4.60
2023-05-04T00:09:16.786Z,4.25
2023-05-04T00:11:43.318Z,3.88
2023-05-04T00:14:09.831Z,3.47
2023-05-04T00:16:36.624Z,3.00
2023-05-04T00:19:03.263Z,2.83
2023-05-04T00:21:29.790Z,2.55
2023-05-04T00:23:56.513Z,2.65
2023-05-04T00:26:23.058Z,2.55
2023-05-04T00:28:49.559Z,2.25
2023-05-04T00:31:19.195Z,2.20
2023-05-04T00:33:46.297Z,2.30
2023-05-04T00:36:14.016Z,2.30
2023-05-04T00:38:50.917Z,2.50
2023-05-04T00:41:19.055Z,2.00
2023-05-04T00:43:45.722Z,2.30
2023-05-04T00:46:13.294Z,2.17
2023-05-04T00:48:41.551Z,1.92
2023-05-04T00:51:10.825Z,1.98
2023-05-04T00:53:39.042Z,2.10
2023-05-04T00:56:06.871Z,2.00
2023-05-04T00:58:33.973Z,2.42
2023-05-04T01:03:42.526Z,2.10
2023-05-04T01:06:27.310Z,2.55
2023-05-04T01:09:10.882Z,1.80
2023-05-04T01:11:42.848Z,1.85
2023-05-04T01:14:11.696Z,1.77
2023-05-04T01:16:38.287Z,2.03
2023-05-04T01:19:04.884Z,1.95
2023-05-04T01:21:31.714Z,1.98
2023-05-04T01:23:59.171Z,1.92
2023-05-04T01:26:29.913Z,1.75
2023-05-04T01:31:27.760Z,1.70
2023-05-04T01:33:55.036Z,1.60
2023-05-04T01:36:22.977Z,1.70
2023-05-04T01:38:49.814Z,1.80
2023-05-04T01:41:16.314Z,1.85
2023-05-04T01:43:43.084Z,2.00
2023-05-04T01:46:09.681Z,1.92
2023-05-04T01:48:36.649Z,2.05
2023-05-04T01:51:03.552Z,1.92
2023-05-04T01:53:30.653Z,2.13
2023-05-04T01:55:57.311Z,1.90
2023-05-04T01:58:23.913Z,2.03
2023-05-04T02:00:50.408Z,2.10
2023-05-04T02:03:16.995Z,1.92
2023-05-04T02:05:43.685Z,2.03
2023-05-04T02:08:10.360Z,1.80
2023-05-04T02:10:37.007Z,2.05
2023-05-04T02:13:03.704Z,2.10
2023-05-04T02:15:30.287Z,1.83
2023-05-04T02:17:56.977Z,2.10
2023-05-04T02:20:23.664Z,2.00
2023-05-04T02:22:50.154Z,2.10
2023-05-04T02:25:16.825Z,1.95
2023-05-04T02:27:43.400Z,2.20
2023-05-04T02:30:10.463Z,2.40
2023-05-04T02:32:37.094Z,2.10
2023-05-04T02:35:04.005Z,2.05
2023-05-04T02:37:30.671Z,2.20
2023-05-04T02:39:57.301Z,2.10
2023-05-04T02:42:23.887Z,1.85
2023-05-04T02:44:50.498Z,2.10
2023-05-04T02:47:17.242Z,2.40
2023-05-04T02:49:43.916Z,2.28
2023-05-04T02:52:10.484Z,2.38
2023-05-04T02:54:38.606Z,2.08
2023-05-04T02:57:05.982Z,2.20
2023-05-04T02:59:32.690Z,2.08
2023-05-04T03:01:59.332Z,2.15
2023-05-04T03:04:26.126Z,1.85
2023-05-04T03:06:52.770Z,2.42
2023-05-04T03:09:19.367Z,2.50
2023-05-04T03:11:46.210Z,2.30
2023-05-04T03:14:12.722Z,2.60
2023-05-04T03:16:39.402Z,2.42
2023-05-04T03:19:06.097Z,2.80
2023-05-04T03:21:32.585Z,2.42
2023-05-04T03:23:59.194Z,2.58
2023-05-04T03:26:25.809Z,2.70
2023-05-04T03:28:52.387Z,3.13
2023-05-04T03:31:19.103Z,3.05
2023-05-04T03:33:45.756Z,2.90
2023-05-04T03:36:12.285Z,3.17
2023-05-04T03:38:38.880Z,3.50
2023-05-04T03:41:05.498Z,3.17
2023-05-04T03:43:32.094Z,3.08
2023-05-04T03:45:58.827Z,3.33
2023-05-04T03:48:25.510Z,3.67
2023-05-04T03:50:52.037Z,3.97
2023-05-04T03:53:18.656Z,3.90
2023-05-04T03:55:45.325Z,3.95
2023-05-04T03:58:11.830Z,4.22
2023-05-04T04:00:38.572Z,4.07
2023-05-04T04:03:05.327Z,3.88
2023-05-04T04:05:31.957Z,3.63
2023-05-04T04:07:58.711Z,3.83
2023-05-04T04:10:25.339Z,3.38
2023-05-04T04:12:51.890Z,4.43
2023-05-04T04:15:18.565Z,4.47
2023-05-04T04:17:45.181Z,3.88
2023-05-04T04:20:12.956Z,4.35
2023-05-04T04:22:39.678Z,3.80
2023-05-04T04:25:06.592Z,3.72
2023-05-04T04:27:33.129Z,4.38
2023-05-04T04:29:59.748Z,3.85
2023-05-04T04:32:26.354Z,4.18
2023-05-04T04:34:52.891Z,4.20
2023-05-04T04:37:19.646Z,4.07
2023-05-04T04:39:46.367Z,4.00
2023-05-04T04:42:13.527Z,3.90
2023-05-04T04:44:40.857Z,3.90
2023-05-04T04:47:07.774Z,4.07
2023-05-04T04:49:35.021Z,3.55
2023-05-04T04:52:01.981Z,4.13
2023-05-04T04:54:28.649Z,3.60
2023-05-04T04:56:55.157Z,3.95
2023-05-04T04:59:24.856Z,3.83
2023-05-04T05:01:51.823Z,3.78
2023-05-04T05:04:19.736Z,3.75
2023-05-04T05:06:46.348Z,4.10
2023-05-04T05:09:12.943Z,4.10
2023-05-04T05:11:39.588Z,3.60
2023-05-04T05:14:06.595Z,3.95
2023-05-04T05:16:33.344Z,3.97
2023-05-04T05:18:59.896Z,4.00
2023-05-04T05:21:26.873Z,3.60
2023-05-04T05:23:53.564Z,3.53
2023-05-04T05:26:20.067Z,4.13
2023-05-04T05:28:46.717Z,3.60
2023-05-04T05:31:13.624Z,3.95
2023-05-04T05:33:40.837Z,3.90
2023-05-04T05:36:07.630Z,3.70
2023-05-04T05:38:34.319Z,3.95
2023-05-04T05:41:00.898Z,3.80
2023-05-04T05:43:27.481Z,3.55
2023-05-04T05:45:54.367Z,3.92
2023-05-04T05:48:21.002Z,3.80
2023-05-04T05:50:47.571Z,4.07
2023-05-04T05:53:14.179Z,3.67
2023-05-04T05:55:40.790Z,3.28
2023-05-04T05:58:08.672Z,3.20
2023-05-04T06:00:35.318Z,2.40
2023-05-04T06:03:02.024Z,1.98
2023-05-04T06:05:28.714Z,1.10
2023-05-04T06:07:55.447Z,1.55
2023-05-04T06:10:22.331Z,1.25
2023-05-04T06:12:48.943Z,1.20
2023-05-04T06:15:15.620Z,1.40
2023-05-04T06:17:42.337Z,1.48
2023-05-04T06:20:09.436Z,1.00
2023-05-04T06:22:36.135Z,1.10
2023-05-04T06:25:05.316Z,1.50
2023-05-04T06:27:34.574Z,1.10
2023-05-04T06:30:01.173Z,1.90
2023-05-04T06:32:27.853Z,0.90
2023-05-04T06:34:55.629Z,0.93
2023-05-04T06:37:22.533Z,0.73
2023-05-04T06:39:49.078Z,1.00
2023-05-04T06:42:15.898Z,1.23
2023-05-04T06:44:42.565Z,1.27
2023-05-04T06:47:09.119Z,0.90
2023-05-04T06:49:35.958Z,0.80
2023-05-04T06:52:02.933Z,0.75
2023-05-04T06:54:29.482Z,0.90
2023-05-04T06:57:05.378Z,0.77
2023-05-04T06:59:32.043Z,0.98
2023-05-04T07:01:58.563Z,0.80
2023-05-04T07:04:25.183Z,1.23
2023-05-04T07:06:52.318Z,1.10
2023-05-04T07:09:19.672Z,0.90
2023-05-04T07:11:46.340Z,0.80
2023-05-04T07:14:12.975Z,0.90
2023-05-04T07:16:39.575Z,0.90
2023-05-04T07:19:06.115Z,0.90
2023-05-04T07:21:33.004Z,0.90
2023-05-04T07:23:59.612Z,0.90
2023-05-04T07:26:26.292Z,0.80
2023-05-04T07:28:53.285Z,1.00
2023-05-04T07:31:19.852Z,0.90
2023-05-04T07:33:46.424Z,0.70
2023-05-04T07:36:13.119Z,0.90
2023-05-04T07:38:39.777Z,0.70
2023-05-04T07:41:07.327Z,0.70
2023-05-04T07:43:33.907Z,0.90
2023-05-04T07:46:00.837Z,0.98
2023-05-04T07:48:27.387Z,0.80
2023-05-04T07:50:54.715Z,0.85
2023-05-04T07:53:21.492Z,0.88
2023-05-04T07:55:48.518Z,1.00
2023-05-04T07:58:16.737Z,0.90
2023-05-04T08:00:43.489Z,0.93
2023-05-04T08:03:10.254Z,0.73
2023-05-04T08:05:36.976Z,1.00
2023-05-04T08:08:03.664Z,1.10
2023-05-04T08:10:30.238Z,1.10
2023-05-04T08:12:57.101Z,0.90
2023-05-04T08:15:23.797Z,1.00
2023-05-04T08:17:50.545Z,0.80
2023-05-04T08:20:17.244Z,1.00
2023-05-04T08:22:43.773Z,0.90
2023-05-04T08:25:10.408Z,0.93
2023-05-04T08:27:37.072Z,0.98
2023-05-04T08:30:03.889Z,0.90
2023-05-04T08:32:33.091Z,1.02
2023-05-04T08:35:00.098Z,1.20
2023-05-04T08:37:26.689Z,0.95
2023-05-04T08:39:53.236Z,0.90
2023-05-04T08:42:32.903Z,1.20
2023-05-04T08:44:59.823Z,1.20
2023-05-04T08:47:27.951Z,1.00
2023-05-04T08:49:56.434Z,1.00
2023-05-04T08:52:24.717Z,1.13
2023-05-04T08:54:55.904Z,0.95
2023-05-04T08:57:26.285Z,1.10
2023-05-04T08:59:54.284Z,1.60
2023-05-04T09:02:22.761Z,1.25
2023-05-04T09:04:50.378Z,1.02
2023-05-04T09:07:21.743Z,0.90
2023-05-04T09:09:50.965Z,1.20
2023-05-04T09:12:18.282Z,1.25
2023-05-04T09:14:46.693Z,0.80
2023-05-04T09:17:25.659Z,1.17
2023-05-04T09:20:03.150Z,1.25
2023-05-04T09:22:30.794Z,1.08
2023-05-04T09:25:11.433Z,1.30
2023-05-04T09:27:39.371Z,0.85
2023-05-04T09:30:06.928Z,1.02
2023-05-04T09:32:37.402Z,0.77
2023-05-04T09:37:31.990Z,0.93
2023-05-04T09:39:59.162Z,1.00
2023-05-04T09:42:27.106Z,1.15
2023-05-04T09:45:04.438Z,1.02
2023-05-04T09:47:41.714Z,1.05
2023-05-04T09:50:13.205Z,1.15
2023-05-04T09:52:42.100Z,1.02
2023-05-04T09:55:12.680Z,1.30
2023-05-04T09:57:41.491Z,1.00
2023-05-04T10:00:13.767Z,1.00
2023-05-04T10:02:40.892Z,1.10
2023-05-04T10:05:09.433Z,1.30
2023-05-04T10:07:36.713Z,0.95
2023-05-04T10:10:03.685Z,1.10
2023-05-04T10:12:31.025Z,1.00
2023-05-04T10:14:58.389Z,1.20
2023-05-04T10:18:06.186Z,1.42
2023-05-04T10:20:51.137Z,1.10
2023-05-04T10:23:45.929Z,1.20
2023-05-04T10:26:18.515Z,0.80
2023-05-04T10:29:12.947Z,1.00
2023-05-04T10:31:41.246Z,1.30
2023-05-04T10:34:08.744Z,1.35
2023-05-04T10:36:39.135Z,2.63
2023-05-04T10:39:17.464Z,1.10
2023-05-04T10:42:04.642Z,1.40
2023-05-04T10:44:33.064Z,1.27
2023-05-04T10:47:02.317Z,1.40
2023-05-04T10:49:29.709Z,1.10
2023-05-04T10:52:09.497Z,1.33
2023-05-04T10:54:37.260Z,1.20
2023-05-04T10:57:06.408Z,1.00
2023-05-04T10:59:35.404Z,1.15
2023-05-04T11:02:03.652Z,1.13
2023-05-04T11:04:31.070Z,1.65
2023-05-04T11:06:57.940Z,1.25
2023-05-04T11:09:26.694Z,1.10
2023-05-04T11:11:54.208Z,1.50
2023-05-04T11:14:28.561Z,1.25
2023-05-04T11:19:53.481Z,1.13
2023-05-04T11:22:20.250Z,1.20
2023-05-04T11:24:49.113Z,1.30
2023-05-04T11:27:26.338Z,1.13
2023-05-04T11:30:01.475Z,1.38
2023-05-04T11:32:39.754Z,1.20
2023-05-04T11:35:15.120Z,1.10
2023-05-04T11:37:43.099Z,1.13
2023-05-04T11:40:14.037Z,1.20
2023-05-04T11:42:42.547Z,1.38
2023-05-04T11:45:19.541Z,1.20
2023-05-04T11:47:47.475Z,0.98
2023-05-04T11:50:16.103Z,1.25
2023-05-04T11:52:43.498Z,1.20
2023-05-04T11:55:25.210Z,1.20
2023-05-04T11:57:59.062Z,1.15
2023-05-04T12:00:43.180Z,1.15
2023-05-04T12:03:15.940Z,1.15
2023-05-04T12:05:47.307Z,1.38
2023-05-04T12:08:30.607Z,1.33
2023-05-04T12:11:25.596Z,0.93
2023-05-04T12:14:04.575Z,1.40
2023-05-04T12:16:31.438Z,1.58
2023-05-04T12:19:06.560Z,1.23
2023-05-04T12:21:34.608Z,1.23
2023-05-04T12:24:01.413Z,1.08
2023-05-04T12:26:28.465Z,1.00
2023-05-04T12:28:55.146Z,0.90
2023-05-04T12:31:24.901Z,0.90
2023-05-04T12:33:51.861Z,1.10
2023-05-04T12:36:18.942Z,1.00
2023-05-04T12:38:46.232Z,1.00
2023-05-04T12:41:13.063Z,1.00
2023-05-04T12:43:39.778Z,1.13
2023-05-04T12:46:06.822Z,1.10
2023-05-04T12:48:33.427Z,1.10
2023-05-04T12:51:01.754Z,1.15
2023-05-04T12:53:31.550Z,1.08
2023-05-04T12:55:59.114Z,1.00
2023-05-04T12:58:25.814Z,1.20
2023-05-04T13:00:52.357Z,1.17
2023-05-04T13:03:19.424Z,1.05
2023-05-04T13:05:47.618Z,1.20
2023-05-04T13:08:14.215Z,1.35
2023-05-04T13:10:41.003Z,1.20
2023-05-04T13:13:07.650Z,1.17
2023-05-04T13:15:34.188Z,1.05
2023-05-04T13:18:01.473Z,1.13
2023-05-04T13:20:28.156Z,1.08
2023-05-04T13:22:58.188Z,1.23
2023-05-04T13:27:52.019Z,1.10
2023-05-04T13:30:20.546Z,1.30
2023-05-04T13:32:47.186Z,1.10
2023-05-04T13:35:13.798Z,1.42
2023-05-04T13:37:40.317Z,1.20
2023-05-04T13:40:07.451Z,1.25
2023-05-04T13:42:36.916Z,1.20
2023-05-04T13:45:04.042Z,1.25
2023-05-04T13:47:30.817Z,1.30
2023-05-04T13:49:57.897Z,1.10
2023-05-04T13:52:24.530Z,1.30
2023-05-04T13:54:52.504Z,1.15
2023-05-04T13:57:19.393Z,1.17
2023-05-04T13:59:58.398Z,1.10
2023-05-04T14:02:34.134Z,1.10
2023-05-04T14:05:01.406Z,1.05
2023-05-04T14:07:28.032Z,1.20
2023-05-04T14:09:56.149Z,1.27
2023-05-04T14:12:22.871Z,1.33
2023-05-04T14:14:50.778Z,1.27
2023-05-04T14:17:17.787Z,1.40
2023-05-04T14:19:45.039Z,1.08
2023-05-04T14:22:11.903Z,1.00
2023-05-04T14:24:38.602Z,1.45
2023-05-04T14:27:05.230Z,1.10
2023-05-04T14:29:33.307Z,1.23
2023-05-04T14:32:01.049Z,1.55
2023-05-04T14:34:30.485Z,1.40
2023-05-04T14:36:57.697Z,1.30
2023-05-04T14:39:25.008Z,1.27
2023-05-04T14:41:53.190Z,1.40
2023-05-04T14:44:20.560Z,1.20
2023-05-04T14:46:47.488Z,1.30
2023-05-04T14:49:18.680Z,1.13
2023-05-04T14:51:51.692Z,1.20
2023-05-04T14:54:18.264Z,0.95
2023-05-04T14:56:44.788Z,1.00
2023-05-04T14:59:11.762Z,1.42
2023-05-04T15:01:38.342Z,1.17
2023-05-04T15:04:05.045Z,1.38
2023-05-04T15:06:32.875Z,1.27
2023-05-04T15:08:59.606Z,1.52
2023-05-04T15:11:26.208Z,1.13
2023-05-04T15:13:55.845Z,1.33
2023-05-04T15:16:22.421Z,1.42
2023-05-04T15:18:49.047Z,1.17
2023-05-04T15:21:16.504Z,1.45
2023-05-04T15:23:43.041Z,1.42
2023-05-04T15:26:09.573Z,1.45
2023-05-04T15:28:36.348Z,1.40
2023-05-04T15:31:05.134Z,1.38
2023-05-04T15:33:32.253Z,1.30
2023-05-04T15:35:58.962Z,1.20
2023-05-04T15:38:26.697Z,1.40
2023-05-04T15:40:53.406Z,1.13
2023-05-04T15:43:20.013Z,1.25
2023-05-04T15:45:46.545Z,1.40
2023-05-04T15:48:13.207Z,1.42
2023-05-04T15:50:39.885Z,1.40
2023-05-04T15:53:06.379Z,1.52
2023-05-04T15:55:32.942Z,1.58
2023-05-04T15:57:59.670Z,0.90
2023-05-04T16:00:26.954Z,1.30
2023-05-04T16:02:53.737Z,1.40
2023-05-04T16:05:20.621Z,0.98
2023-05-04T16:07:47.180Z,1.25
2023-05-04T16:10:13.743Z,1.30
2023-05-04T16:12:41.373Z,1.27
2023-05-04T16:15:08.112Z,1.40
2023-05-04T16:17:35.446Z,1.35
2023-05-04T16:20:04.007Z,1.40
2023-05-04T16:22:31.718Z,1.20
2023-05-04T16:24:58.801Z,1.20
2023-05-04T16:27:27.314Z,1.30
2023-05-04T16:29:54.678Z,1.42
2023-05-04T16:32:21.860Z,1.20
2023-05-04T16:34:48.655Z,1.20
2023-05-04T16:37:16.080Z,1.30
2023-05-04T16:39:42.735Z,1.10
2023-05-04T16:42:10.022Z,1.25
2023-05-04T16:44:36.654Z,1.30
2023-05-04T16:47:03.326Z,1.33
2023-05-04T16:49:30.350Z,1.45
2023-05-04T16:51:57.259Z,1.40
2023-05-04T16:54:24.215Z,1.45
2023-05-04T16:56:52.136Z,1.30
2023-05-04T16:59:18.682Z,1.90
2023-05-04T17:01:45.764Z,1.25
2023-05-04T17:04:12.485Z,1.30
2023-05-04T17:06:39.008Z,1.25
2023-05-04T17:09:05.645Z,1.20
2023-05-04T17:11:32.332Z,1.20
2023-05-04T17:13:59.727Z,1.60
2023-05-04T17:16:26.270Z,1.38
2023-05-04T17:18:53.196Z,1.30
2023-05-04T17:21:19.885Z,1.08
2023-05-04T17:23:46.395Z,1.30
2023-05-04T17:26:13.122Z,1.30
2023-05-04T17:28:39.662Z,1.60
2023-05-04T17:31:09.387Z,1.48
2023-05-04T17:33:35.996Z,1.40
2023-05-04T17:36:03.906Z,1.20
2023-05-04T17:38:30.490Z,1.25
2023-05-04T17:40:57.069Z,1.40
2023-05-04T17:43:23.661Z,1.30
2023-05-04T17:45:50.217Z,1.23
2023-05-04T17:48:16.872Z,1.38
2023-05-04T17:50:43.416Z,1.33
2023-05-04T17:53:09.954Z,1.23
2023-05-04T17:55:36.694Z,1.13
2023-05-04T17:58:03.898Z,1.20
2023-05-04T18:00:30.495Z,1.38
2023-05-04T18:02:57.364Z,1.60
2023-05-04T18:05:25.111Z,1.55
2023-05-04T18:07:51.726Z,1.40
2023-05-04T18:10:18.473Z,1.30
2023-05-04T18:12:45.070Z,2.60
2023-05-04T18:15:12.032Z,1.33
2023-05-04T18:17:38.842Z,1.20
2023-05-04T18:20:07.350Z,1.63
2023-05-04T18:22:34.481Z,1.30
2023-05-04T18:25:01.426Z,1.30
2023-05-04T18:27:33.360Z,1.55
2023-05-04T18:30:00.796Z,1.60
2023-05-04T18:32:27.927Z,1.38
2023-05-04T18:34:54.740Z,1.17
2023-05-04T18:37:21.672Z,1.30
2023-05-04T18:39:48.324Z,1.30
2023-05-04T18:42:14.966Z,1.73
2023-05-04T18:44:41.485Z,2.00
2023-05-04T18:47:08.774Z,2.20
2023-05-04T18:49:35.373Z,1.98
2023-05-04T18:52:02.186Z,2.05
2023-05-04T18:54:34.757Z,2.17
2023-05-04T18:57:03.405Z,1.77
2023-05-04T18:59:32.440Z,1.63
2023-05-04T19:01:59.049Z,4.22
2023-05-04T19:04:25.590Z,3.13
2023-05-04T19:06:53.686Z,2.90
2023-05-04T19:09:20.526Z,2.05
2023-05-04T19:11:47.209Z,1.63
2023-05-04T19:14:13.964Z,1.50
2023-05-04T19:16:40.743Z,1.40
2023-05-04T19:19:07.570Z,1.40
2023-05-04T19:21:34.107Z,1.65
2023-05-04T19:24:00.827Z,1.80
2023-05-04T19:26:27.504Z,1.70
2023-05-04T19:28:54.062Z,1.67
2023-05-04T19:31:20.843Z,1.55
2023-05-04T19:33:49.596Z,1.70
2023-05-04T19:36:17.142Z,1.58
2023-05-04T19:38:43.997Z,1.70
2023-05-04T19:41:10.689Z,1.50
2023-05-04T19:43:38.832Z,1.23
2023-05-04T19:46:06.065Z,1.42
2023-05-04T19:48:33.012Z,1.70
2023-05-04T19:50:59.759Z,2.00
2023-05-04T19:53:26.455Z,1.60
2023-05-04T19:55:53.038Z,2.15
2023-05-04T19:58:19.707Z,1.77
2023-05-04T20:00:46.585Z,1.55
2023-05-04T20:03:13.503Z,1.63
2023-05-04T20:05:40.469Z,1.77
2023-05-04T20:08:07.138Z,2.42
2023-05-04T20:10:33.801Z,1.90
2023-05-04T20:13:00.372Z,2.00
2023-05-04T20:15:27.202Z,2.00
2023-05-04T20:17:53.882Z,2.30
2023-05-04T20:20:21.944Z,1.83
2023-05-04T20:22:52.404Z,2.17
2023-05-04T20:25:19.964Z,1.60
2023-05-04T20:27:48.681Z,1.80
2023-05-04T20:30:15.657Z,1.90
2023-05-04T20:32:42.761Z,1.67
2023-05-04T20:35:09.609Z,1.63
2023-05-04T20:37:36.404Z,1.77
2023-05-04T20:40:02.999Z,1.83
2023-05-04T20:42:29.939Z,1.75
2023-05-04T20:44:56.518Z,1.92
2023-05-04T20:47:23.468Z,1.67
2023-05-04T20:49:49.981Z,1.70
2023-05-04T20:52:16.725Z,1.80
2023-05-04T20:54:43.318Z,1.88
2023-05-04T20:57:09.884Z,2.30
2023-05-04T20:59:36.536Z,2.28
2023-05-04T21:02:03.194Z,2.22
2023-05-04T21:04:29.814Z,2.17
2023-05-04T21:06:57.362Z,2.00
2023-05-04T21:09:24.101Z,2.47
2023-05-04T21:11:50.755Z,1.63
2023-05-04T21:14:17.487Z,1.95
2023-05-04T21:16:44.224Z,1.85
2023-05-04T21:19:10.908Z,2.13
2023-05-04T21:21:41.177Z,1.70
2023-05-04T21:24:12.908Z,1.83
2023-05-04T21:26:39.722Z,1.80
2023-05-04T21:29:11.329Z,2.00
2023-05-04T21:31:38.128Z,2.03
2023-05-04T21:34:04.914Z,1.77
2023-05-04T21:36:31.900Z,2.05
2023-05-04T21:38:58.823Z,1.63
2023-05-04T21:41:25.695Z,2.00
2023-05-04T21:43:52.409Z,1.95
2023-05-04T21:46:19.197Z,1.63
2023-05-04T21:48:45.864Z,1.88
2023-05-04T21:51:12.847Z,1.50
2023-05-04T21:53:39.542Z,1.80
2023-05-04T21:56:08.403Z,1.98
2023-05-04T21:58:37.390Z,1.67
2023-05-04T22:01:04.224Z,1.48
2023-05-04T22:03:30.865Z,1.48
2023-05-04T22:05:58.146Z,1.50
2023-05-04T22:08:25.390Z,2.25
2023-05-04T22:10:53.263Z,2.00
2023-05-04T22:13:20.312Z,2.00
2023-05-04T22:15:50.402Z,1.77
2023-05-04T22:18:17.828Z,1.83
2023-05-04T22:20:45.777Z,2.20
2023-05-04T22:23:13.163Z,1.65
2023-05-04T22:25:40.197Z,2.10
2023-05-04T22:28:06.965Z,2.03
2023-05-04T22:30:33.729Z,2.28
2023-05-04T22:33:00.453Z,1.92
2023-05-04T22:35:27.480Z,2.20
2023-05-04T22:37:54.273Z,2.25
2023-05-04T22:40:21.287Z,1.88
2023-05-04T22:42:48.052Z,1.95
2023-05-04T22:45:15.055Z,1.70
2023-05-04T22:47:42.382Z,1.80
2023-05-04T22:50:10.685Z,2.20
2023-05-04T22:52:38.231Z,1.90
2023-05-04T22:55:05.894Z,1.70
2023-05-04T22:57:36.766Z,1.92
2023-05-04T23:00:05.553Z,1.83
2023-05-04T23:02:32.311Z,1.90
2023-05-04T23:04:59.774Z,2.00
2023-05-04T23:07:26.515Z,1.75
2023-05-04T23:09:53.021Z,1.80
2023-05-04T23:12:19.658Z,1.80
2023-05-04T23:14:50.143Z,1.90
2023-05-04T23:19:43.755Z,1.77
2023-05-04T23:22:10.434Z,2.17
2023-05-04T23:24:37.169Z,2.00
2023-05-04T23:27:04.079Z,2.00
2023-05-04T23:29:30.878Z,2.00
2023-05-04T23:31:57.629Z,2.03
2023-05-04T23:34:24.496Z,1.67
2023-05-04T23:36:54.145Z,1.90
2023-05-04T23:39:20.900Z,1.88
2023-05-04T23:41:47.814Z,1.73
2023-05-04T23:44:14.506Z,1.98
2023-05-04T23:46:41.155Z,1.98
2023-05-04T23:49:07.777Z,2.45
2023-05-04T23:51:34.409Z,1.98
2023-05-04T23:54:00.953Z,2.40
2023-05-04T23:56:27.546Z,2.10
2023-05-04T23:58:54.209Z,2.03
